Time;durP1;ratioP1;P1;durP2;ratioP2;P2;SDS_P1;SDS_P2;PMS_P1;PMS_P2;Temp;Humidity;BMP_temperature;BMP_pressure;BME280_temperature;BME280_humidity;BME280_pressure;Samples;Min_cycle;Max_cycle;Signal;HPM_P1;HPM_P2
2022/06/05 17:48:57;;;;;;;;;;;26.20;83.20;26.00;99689.00;;;;335987;28;89616;-79
2022/06/05 17:49:27;;;;;;;;;;;26.20;83.60;26.00;99688.00;;;;336271;28;82278;-80
2022/06/05 17:49:45;;;;;;;;;;;26.20;83.50;26.00;99687.00;;;;337788;28;91265;-79
2022/06/05 17:50:28;;;;;;;;;;;26.20;83.30;26.00;99685.00;;;;335090;29;83614;-80
2022/06/05 17:50:43;;;;;;;;;;;26.20;83.50;26.00;99682.00;;;;332259;29;88373;-79
2022/06/05 17:50:59;;;;;;;;;;;26.20;83.00;26.00;99684.00;;;;331037;29;83517;-80
2022/06/05 17:51:31;;;;;;;;;;;26.10;82.90;25.90;99680.00;;;;332948;29;88391;-79
2022/06/05 17:51:46;;;;;;;;;;;26.20;82.90;26.00;99685.00;;;;334021;29;83172;-80
2022/06/05 17:51:58;;;;;;;;;;;26.20;83.10;25.90;99683.00;;;;336196;28;90216;-80
2022/06/05 17:52:16;;;;;;;;;;;26.10;83.20;25.90;99687.00;;;;336285;28;83304;-81
2022/06/05 17:52:28;;;;;;;;;;;26.10;83.30;25.80;99682.00;;;;335895;28;89570;-80
2022/06/05 17:52:41;;;;;;;;;;;26.10;82.80;25.80;99679.00;;;;335950;28;83393;-80
2022/06/05 17:52:54;;;;;;;;;;;26.10;82.80;25.90;99680.00;;;;334891;29;89297;-80
2022/06/05 17:53:18;;;;;;;;;;;26.10;82.90;25.80;99683.00;;;;333959;29;83441;-80
2022/06/05 17:53:37;;;;;;;;;;;26.00;82.80;25.90;99680.00;;;;334988;29;88561;-80
2022/06/05 17:53:49;;;;;;;;;;;26.10;82.90;25.80;99675.00;;;;335429;29;82444;-80
2022/06/05 17:54:10;;;;;;;;;;;26.10;83.30;25.80;99674.00;;;;333922;29;89169;-79
2022/06/05 17:54:27;;;;;;;;;;;26.10;82.80;25.90;99676.00;;;;332727;29;82592;-80
2022/06/05 17:54:45;;;;;;;;;;;26.10;83.00;25.80;99680.00;;;;332294;29;89983;-81
2022/06/05 17:55:20;;;;;;;;;;;26.00;82.80;25.90;99677.00;;;;334305;29;82301;-81
2022/06/05 17:55:33;;;;;;;;;;;26.00;83.00;25.80;99683.00;;;;336080;28;89115;-81
2022/06/05 17:55:45;;;;;;;;;;;26.00;82.70;25.80;99687.00;;;;336587;28;82449;-80
2022/06/05 17:55:57;;;;;;;;;;;26.00;82.60;25.80;99677.00;;;;334960;29;89605;-80
2022/06/05 17:56:28;;;;;;;;;;;26.00;82.70;25.70;99680.00;;;;336575;28;83157;-80
2022/06/05 17:56:43;;;;;;;;;;;26.00;82.80;25.80;99686.00;;;;336158;28;89245;-79
2022/06/05 17:56:58;;;;;;;;;;;26.00;82.90;25.70;99685.00;;;;337599;28;83177;-80
2022/06/05 17:57:17;;;;;;;;;;;25.90;82.60;25.80;99684.00;;;;333462;29;89014;-80
2022/06/05 17:57:31;;;;;;;;;;;25.90;82.60;25.80;99676.00;;;;336583;28;83244;-80
2022/06/05 17:57:43;;;;;;;;;;;25.90;82.50;25.70;99673.00;;;;335287;28;90467;-80
2022/06/05 17:57:59;;;;;;;;;;;25.90;82.50;25.60;99672.00;;;;335360;29;83195;-80
2022/06/05 17:58:21;;;;;;;;;;;25.90;82.40;25.70;99676.00;;;;336141;28;88995;-79
2022/06/05 17:58:33;;;;;;;;;;;25.90;82.60;25.80;99674.00;;;;335235;29;83505;-80
2022/06/05 17:58:46;;;;;;;;;;;25.90;82.70;25.80;99675.00;;;;334743;29;89510;-79
2022/06/05 17:58:58;;;;;;;;;;;25.90;82.80;25.60;99679.00;;;;336594;28;83585;-80
2022/06/05 17:59:24;;;;;;;;;;;25.90;82.40;25.60;99675.00;;;;336166;28;88974;-80
2022/06/05 17:59:43;;;;;;;;;;;25.90;82.50;25.70;99679.00;;;;336455;28;83318;-80
2022/06/05 18:00:19;;;;;;;;;;;25.90;82.60;25.70;99684.00;;;;335954;28;89247;-80
2022/06/05 18:00:36;;;;;;;;;;;25.80;82.70;25.80;99680.00;;;;335457;29;83252;-79
2022/06/05 18:00:55;;;;;;;;;;;25.80;83.00;25.80;99676.00;;;;333547;29;90426;-79
2022/06/05 18:01:09;;;;;;;;;;;25.80;82.90;25.80;99677.00;;;;334080;29;83455;-80
2022/06/05 18:01:23;;;;;;;;;;;25.80;82.90;25.80;99676.00;;;;333282;29;89169;-80
2022/06/05 18:01:37;;;;;;;;;;;25.80;82.80;25.80;99678.00;;;;334948;29;83579;-80
2022/06/05 18:01:48;;;;;;;;;;;25.80;82.90;25.80;99678.00;;;;333675;29;89591;-79
2022/06/05 18:02:12;;;;;;;;;;;25.80;83.10;25.80;99678.00;;;;334115;29;83132;-79
2022/06/05 18:02:25;;;;;;;;;;;25.80;82.60;25.80;99678.00;;;;333688;29;88144;-80
2022/06/05 18:02:39;;;;;;;;;;;25.80;82.60;25.80;99684.00;;;;333798;29;83359;-79
2022/06/05 18:03:01;;;;;;;;;;;25.80;82.70;25.70;99684.00;;;;334788;28;89912;-81
2022/06/05 18:03:15;;;;;;;;;;;25.80;82.60;25.80;99678.00;;;;335815;28;82369;-80
2022/06/05 18:03:26;;;;;;;;;;;25.80;82.70;25.80;99682.00;;;;336160;28;90195;-80
2022/06/05 18:03:41;;;;;;;;;;;25.80;82.80;25.90;99683.00;;;;336549;28;83419;-80
2022/06/05 18:03:54;;;;;;;;;;;25.80;82.70;25.90;99677.00;;;;336245;28;89164;-78
2022/06/05 18:04:08;;;;;;;;;;;25.80;82.70;25.90;99680.00;;;;336660;28;83219;-78
2022/06/05 18:04:23;;;;;;;;;;;25.90;82.90;25.90;99676.00;;;;336101;28;89636;-78
2022/06/05 18:04:35;;;;;;;;;;;25.80;83.00;25.90;99683.00;;;;336465;28;83394;-77
2022/06/05 18:05:20;;;;;;;;;;;25.90;82.70;25.80;99682.00;;;;334891;29;89664;-78
2022/06/05 18:05:36;;;;;;;;;;;25.90;82.30;25.70;99685.00;;;;333898;29;83318;-77
2022/06/05 18:06:03;;;;;;;;;;;25.80;82.30;25.80;99679.00;;;;333399;29;89316;-77
2022/06/05 18:06:25;;;;;;;;;;;25.90;82.70;25.90;99676.00;;;;334489;29;82348;-78
2022/06/05 18:06:40;;;;;;;;;;;25.90;82.70;25.90;99683.00;;;;336049;28;89923;-78
2022/06/05 18:07:00;;;;;;;;;;;25.90;82.90;25.90;99685.00;;;;334056;29;83162;-78
2022/06/05 18:07:30;;;;;;;;;;;25.90;82.70;25.90;99681.00;;;;333593;29;89213;-78
2022/06/05 18:07:42;;;;;;;;;;;25.90;82.50;26.00;99683.00;;;;334363;29;83326;-78
2022/06/05 18:08:18;;;;;;;;;;;25.90;82.50;26.10;99682.00;;;;333635;29;89443;-78
2022/06/05 18:08:30;;;;;;;;;;;25.90;82.60;26.10;99685.00;;;;333760;29;82509;-78
2022/06/05 18:08:42;;;;;;;;;;;26.00;82.50;26.10;99682.00;;;;334799;29;89097;-77
2022/06/05 18:09:15;;;;;;;;;;;26.00;82.60;26.00;99680.00;;;;334885;29;83399;-77
2022/06/05 18:09:28;;;;;;;;;;;26.00;82.40;26.00;99677.00;;;;333672;29;88021;-78
2022/06/05 18:09:41;;;;;;;;;;;26.00;82.40;25.80;99682.00;;;;333981;29;83290;-78
2022/06/05 18:09:55;;;;;;;;;;;26.00;81.60;25.60;99683.00;;;;334729;29;90214;-78
2022/06/05 18:10:19;;;;;;;;;;;25.90;81.10;25.60;99682.00;;;;336651;28;83329;-78
2022/06/05 18:10:31;;;;;;;;;;;25.90;81.30;25.80;99682.00;;;;336762;28;89598;-78
2022/06/05 18:10:45;;;;;;;;;;;25.90;81.50;25.90;99677.00;;;;336128;28;83397;-77
2022/06/05 18:10:57;;;;;;;;;;;25.90;81.60;25.90;99690.00;;;;337366;28;86948;-78
2022/06/05 18:11:14;;;;;;;;;;;25.90;81.60;25.90;99684.00;;;;337836;28;83477;-78
2022/06/05 18:11:25;;;;;;;;;;;25.90;81.70;25.90;99676.00;;;;334933;29;89191;-78
2022/06/05 18:11:40;;;;;;;;;;;25.90;81.80;25.90;99685.00;;;;335233;29;83458;-78
2022/06/05 18:12:03;;;;;;;;;;;25.90;81.00;25.80;99687.00;;;;334588;29;89764;-77
2022/06/05 18:12:15;;;;;;;;;;;25.90;81.00;25.90;99688.00;;;;335150;29;83462;-78
2022/06/05 18:12:31;;;;;;;;;;;25.90;81.40;25.90;99688.00;;;;333575;29;90190;-78
2022/06/05 18:12:44;;;;;;;;;;;25.90;81.80;26.00;99688.00;;;;331485;29;83445;-78
2022/06/05 18:12:57;;;;;;;;;;;25.90;81.40;26.00;99685.00;;;;332337;29;89560;-78
2022/06/05 18:13:13;;;;;;;;;;;25.90;81.40;25.90;99696.00;;;;334023;29;83376;-78
2022/06/05 18:13:43;;;;;;;;;;;25.90;81.60;26.00;99695.00;;;;333797;29;89334;-78
2022/06/05 18:13:56;;;;;;;;;;;26.00;81.70;26.00;99685.00;;;;336683;28;82486;-78
2022/06/05 18:14:38;;;;;;;;;;;26.00;81.40;26.10;99687.00;;;;333588;29;89391;-78
2022/06/05 18:14:54;;;;;;;;;;;26.00;81.40;26.00;99693.00;;;;335867;28;82435;-78
2022/06/05 18:15:09;;;;;;;;;;;26.00;81.40;26.10;99684.00;;;;335908;28;89574;-78
2022/06/05 18:15:22;;;;;;;;;;;26.00;81.30;26.10;99695.00;;;;336647;28;83376;-78
2022/06/05 18:15:34;;;;;;;;;;;26.00;81.20;26.10;99690.00;;;;334822;29;90530;-78
2022/06/05 18:15:56;;;;;;;;;;;26.10;81.30;26.00;99694.00;;;;335321;29;83438;-78
2022/06/05 18:16:08;;;;;;;;;;;26.10;81.30;26.00;99690.00;;;;336173;28;89379;-78
2022/06/05 18:16:34;;;;;;;;;;;26.10;81.40;25.90;99700.00;;;;336628;28;83366;-78
2022/06/05 18:16:46;;;;;;;;;;;26.10;81.40;26.00;99697.00;;;;334664;29;89308;-78
2022/06/05 18:17:00;;;;;;;;;;;26.00;81.60;26.00;99698.00;;;;335382;29;83448;-78
2022/06/05 18:17:23;;;;;;;;;;;26.00;81.60;26.00;99694.00;;;;334942;29;89451;-78
2022/06/05 18:17:37;;;;;;;;;;;26.00;82.00;25.90;99695.00;;;;335221;29;83461;-78
2022/06/05 18:17:55;;;;;;;;;;;26.00;81.70;25.90;99687.00;;;;334893;29;89292;-78
2022/06/05 18:18:08;;;;;;;;;;;26.00;81.50;25.90;99693.00;;;;333622;29;83353;-77
2022/06/05 18:18:20;;;;;;;;;;;26.00;81.50;25.90;99690.00;;;;334852;29;89192;-77
2022/06/05 18:18:35;;;;;;;;;;;26.00;81.50;25.90;99689.00;;;;334061;29;83482;-79
2022/06/05 18:18:51;;;;;;;;;;;26.00;81.70;25.90;99691.00;;;;333608;29;88048;-78
2022/06/05 18:19:04;;;;;;;;;;;26.00;81.80;25.90;99691.00;;;;335153;29;82317;-78
2022/06/05 18:19:36;;;;;;;;;;;26.00;81.80;25.90;99687.00;;;;334677;29;89445;-78
2022/06/05 18:19:57;;;;;;;;;;;26.00;82.10;25.80;99697.00;;;;334103;29;83288;-78
2022/06/05 18:20:18;;;;;;;;;;;26.00;81.80;25.70;99688.00;;;;334880;29;89225;-78
2022/06/05 18:20:56;;;;;;;;;;;25.90;81.60;25.80;99698.00;;;;333299;28;83496;-78
2022/06/05 18:21:13;;;;;;;;;;;25.90;81.90;25.80;99696.00;;;;332412;29;89520;-77
2022/06/05 18:21:34;;;;;;;;;;;25.90;82.10;25.70;99699.00;;;;334084;29;83045;-77
2022/06/05 18:21:46;;;;;;;;;;;25.90;82.00;25.60;99696.00;;;;335945;28;89967;-78
2022/06/05 18:21:59;;;;;;;;;;;25.90;81.80;25.70;99687.00;;;;335254;29;83513;-78
2022/06/05 18:22:27;;;;;;;;;;;25.90;82.50;25.70;99696.00;;;;336959;28;89071;-78
2022/06/05 18:22:42;;;;;;;;;;;25.80;82.40;25.70;99698.00;;;;336357;28;83396;-78
2022/06/05 18:22:55;;;;;;;;;;;25.90;82.20;25.50;99695.00;;;;334822;29;89132;-78
2022/06/05 18:23:15;;;;;;;;;;;25.80;82.00;25.60;99698.00;;;;335295;29;83234;-78
2022/06/05 18:23:27;;;;;;;;;;;25.80;82.00;25.60;99697.00;;;;333595;29;89353;-77
2022/06/05 18:23:41;;;;;;;;;;;25.70;82.30;25.60;99696.00;;;;333854;29;83438;-78
2022/06/05 18:23:53;;;;;;;;;;;25.70;82.20;25.70;99698.00;;;;332730;29;89575;-77
2022/06/05 18:24:33;;;;;;;;;;;25.70;82.40;25.70;99699.00;;;;333253;29;82560;-78
2022/06/05 18:24:45;;;;;;;;;;;25.70;82.40;25.70;99703.00;;;;333421;29;90484;-78
2022/06/05 18:24:56;;;;;;;;;;;25.80;82.50;25.70;99699.00;;;;333962;29;83307;-79
2022/06/05 18:25:28;;;;;;;;;;;25.70;82.70;25.70;99693.00;;;;332116;29;89444;-77
2022/06/05 18:25:45;;;;;;;;;;;25.70;82.80;25.70;99702.00;;;;333594;29;83466;-77
2022/06/05 18:25:59;;;;;;;;;;;25.70;82.50;25.70;99706.00;;;;334947;29;89475;-78
2022/06/05 18:26:16;;;;;;;;;;;25.70;82.30;25.70;99700.00;;;;335010;29;83350;-77
2022/06/05 18:27:28;;;;;;;;;;;25.70;82.30;25.60;99707.00;;;;333992;29;82283;-78
2022/06/05 18:27:39;;;;;;;;;;;25.70;82.80;25.50;99705.00;;;;333455;29;89143;-78
2022/06/05 18:28:27;;;;;;;;;;;25.70;83.00;25.40;99700.00;;;;333629;29;83527;-78
2022/06/05 18:28:44;;;;;;;;;;;25.70;83.40;25.30;99701.00;;;;333277;29;89985;-78
2022/06/05 18:28:56;;;;;;;;;;;25.60;83.60;25.40;99700.00;;;;332714;29;83302;-78
2022/06/05 18:29:08;;;;;;;;;;;25.60;83.90;25.40;99698.00;;;;334821;29;88852;-77
2022/06/05 18:29:31;;;;;;;;;;;25.50;83.90;25.30;99694.00;;;;333894;29;83407;-78
2022/06/05 18:29:49;;;;;;;;;;;25.50;84.00;25.30;99691.00;;;;333399;29;89250;-78
2022/06/05 18:30:04;;;;;;;;;;;25.50;84.10;25.30;99699.00;;;;333617;29;82611;-78
2022/06/05 18:30:22;;;;;;;;;;;25.50;84.10;25.40;99699.00;;;;332204;29;91114;-78
2022/06/05 18:30:46;;;;;;;;;;;25.40;84.10;25.20;99704.00;;;;332501;29;83302;-78
2022/06/05 18:31:24;;;;;;;;;;;25.50;84.20;25.30;99708.00;;;;332234;29;89527;-78
2022/06/05 18:31:44;;;;;;;;;;;25.50;84.30;25.30;99695.00;;;;333464;29;83654;-79
2022/06/05 18:32:06;;;;;;;;;;;25.40;84.50;25.20;99709.00;;;;333458;29;90565;-79
2022/06/05 18:32:38;;;;;;;;;;;25.40;84.60;25.20;99710.00;;;;336550;28;83479;-78
2022/06/05 18:32:58;;;;;;;;;;;25.40;84.80;25.30;99697.00;;;;334670;29;89004;-78
2022/06/05 18:33:24;;;;;;;;;;;25.40;84.70;25.40;99706.00;;;;333029;29;82418;-78
2022/06/05 18:33:58;;;;;;;;;;;25.40;84.90;25.20;99711.00;;;;332184;29;87958;-78
2022/06/05 18:34:24;;;;;;;;;;;25.40;84.90;25.30;99701.00;;;;332393;29;82517;-79
2022/06/05 18:35:07;;;;;;;;;;;25.40;84.80;25.20;99708.00;;;;330756;29;89472;-77
2022/06/05 18:38:31;;;;;;;;;;;25.20;84.40;25.10;99714.00;;;;333261;29;89359;-78
2022/06/05 18:38:43;;;;;;;;;;;25.20;84.20;25.10;99704.00;;;;332499;29;83372;-78
2022/06/05 18:38:55;;;;;;;;;;;25.20;84.10;25.10;99703.00;;;;334107;29;89132;-78
2022/06/05 18:39:12;;;;;;;;;;;25.20;84.10;25.00;99703.00;;;;332392;29;83416;-78
2022/06/05 18:39:36;;;;;;;;;;;25.20;84.30;25.10;99714.00;;;;331056;29;88918;-78
2022/06/05 18:39:49;;;;;;;;;;;25.20;84.50;25.00;99714.00;;;;331314;29;83681;-78
2022/06/05 18:40:12;;;;;;;;;;;25.20;84.10;25.00;99708.00;;;;331682;29;88458;-78
2022/06/05 18:40:36;;;;;;;;;;;25.10;84.10;25.00;99713.00;;;;333499;29;83365;-78
2022/06/05 18:40:53;;;;;;;;;;;25.10;84.30;25.00;99716.00;;;;332068;29;93617;-78
2022/06/05 18:41:04;;;;;;;;;;;25.10;84.30;24.90;99709.00;;;;333811;29;83245;-78
2022/06/05 18:41:17;;;;;;;;;;;25.10;84.50;24.90;99710.00;;;;334923;29;88073;-78
2022/06/05 18:41:32;;;;;;;;;;;25.10;84.50;25.00;99708.00;;;;336380;28;83416;-78
2022/06/05 18:41:50;;;;;;;;;;;25.10;84.50;25.00;99707.00;;;;333498;29;89217;-78
2022/06/05 18:42:02;;;;;;;;;;;25.00;84.70;25.00;99702.00;;;;332081;29;82607;-78
2022/06/05 18:42:21;;;;;;;;;;;25.00;84.70;25.00;99715.00;;;;332045;29;88733;-78
2022/06/05 18:42:34;;;;;;;;;;;25.00;84.80;25.00;99722.00;;;;335250;29;83481;-78
2022/06/05 18:42:46;;;;;;;;;;;25.00;84.80;24.90;99700.00;;;;332231;29;89531;-78
2022/06/05 18:43:03;;;;;;;;;;;25.00;84.80;24.80;99714.00;;;;333706;29;83264;-78
2022/06/05 18:43:34;;;;;;;;;;;25.00;84.60;24.80;99717.00;;;;332170;29;90973;-78
2022/06/05 18:43:46;;;;;;;;;;;25.00;84.80;24.90;99714.00;;;;333930;29;83477;-78
2022/06/05 18:43:58;;;;;;;;;;;25.00;85.00;24.90;99715.00;;;;333519;29;89311;-78
2022/06/05 18:44:15;;;;;;;;;;;25.00;84.90;25.00;99713.00;;;;332558;29;83893;-78
2022/06/05 18:44:34;;;;;;;;;;;25.00;84.90;25.00;99710.00;;;;330833;29;89541;-78
2022/06/05 18:44:46;;;;;;;;;;;25.00;84.90;25.00;99721.00;;;;332644;29;83384;-78
2022/06/05 18:44:58;;;;;;;;;;;25.00;84.90;25.00;99715.00;;;;331061;29;89935;-78
2022/06/05 18:45:17;;;;;;;;;;;25.00;85.00;24.90;99708.00;;;;332559;29;82298;-78
2022/06/05 18:45:33;;;;;;;;;;;25.00;84.90;24.90;99721.00;;;;331002;29;86976;-78
2022/06/05 18:45:46;;;;;;;;;;;24.90;85.00;24.80;99716.00;;;;332509;29;83665;-78
2022/06/05 18:45:59;;;;;;;;;;;25.00;85.10;24.80;99710.00;;;;333671;29;90061;-78
2022/06/05 18:46:19;;;;;;;;;;;24.90;85.70;24.90;99719.00;;;;336505;28;83288;-78
2022/06/05 18:46:31;;;;;;;;;;;24.90;85.10;24.90;99714.00;;;;334667;29;87289;-78
2022/06/05 18:46:43;;;;;;;;;;;24.90;85.10;24.80;99717.00;;;;334157;29;83487;-78
2022/06/05 18:46:56;;;;;;;;;;;24.90;85.20;24.90;99721.00;;;;333482;29;89429;-78
2022/06/05 18:47:16;;;;;;;;;;;24.90;85.20;24.80;99717.00;;;;335090;29;83322;-78
2022/06/05 18:47:38;;;;;;;;;;;24.90;85.20;24.90;99721.00;;;;334627;29;89681;-77
2022/06/05 18:47:53;;;;;;;;;;;24.90;85.20;24.90;99719.00;;;;335308;29;82254;-78
2022/06/05 18:48:10;;;;;;;;;;;24.90;85.10;24.90;99728.00;;;;331508;29;89401;-77
2022/06/05 18:48:35;;;;;;;;;;;24.90;85.20;24.90;99720.00;;;;331180;29;83461;-77
2022/06/05 18:48:47;;;;;;;;;;;24.90;85.30;24.90;99721.00;;;;333424;29;90430;-78
2022/06/05 18:48:59;;;;;;;;;;;24.90;85.50;24.80;99721.00;;;;332834;29;82257;-78
2022/06/05 18:49:15;;;;;;;;;;;24.90;85.40;24.80;99715.00;;;;333531;29;88820;-78
2022/06/05 18:49:30;;;;;;;;;;;24.90;85.40;24.80;99727.00;;;;333626;29;83354;-78
2022/06/05 18:49:42;;;;;;;;;;;24.90;85.40;24.80;99721.00;;;;331606;29;89628;-77
2022/06/05 18:49:55;;;;;;;;;;;24.90;85.10;24.70;99727.00;;;;332644;29;83351;-78
2022/06/05 18:50:10;;;;;;;;;;;24.80;85.30;24.70;99724.00;;;;333070;29;90187;-78
2022/06/05 18:50:25;;;;;;;;;;;24.80;85.40;24.80;99727.00;;;;333998;29;83400;-78
2022/06/05 18:50:38;;;;;;;;;;;24.80;86.10;24.80;99722.00;;;;334591;29;89123;-78
2022/06/05 18:50:58;;;;;;;;;;;24.80;85.50;24.80;99721.00;;;;334952;29;83508;-78
2022/06/05 18:51:17;;;;;;;;;;;24.80;85.60;24.80;99726.00;;;;334614;29;92185;-78
2022/06/05 18:51:31;;;;;;;;;;;24.80;85.60;24.70;99718.00;;;;335180;29;83189;-78
2022/06/05 18:51:43;;;;;;;;;;;24.80;85.60;24.70;99720.00;;;;333406;29;88471;-78
2022/06/05 18:51:57;;;;;;;;;;;24.80;85.70;24.80;99722.00;;;;333962;29;83448;-78
2022/06/05 18:52:14;;;;;;;;;;;24.80;85.80;24.70;99721.00;;;;334666;29;90765;-78
2022/06/05 18:52:27;;;;;;;;;;;24.80;85.80;24.70;99728.00;;;;334873;29;83911;-77
2022/06/05 18:52:39;;;;;;;;;;;24.80;85.80;24.80;99721.00;;;;332204;29;88755;-77
2022/06/05 18:52:52;;;;;;;;;;;24.80;85.90;24.80;99718.00;;;;333900;29;83481;-78
2022/06/05 18:53:05;;;;;;;;;;;24.80;86.10;24.60;99719.00;;;;333433;29;89126;-78
2022/06/05 18:53:20;;;;;;;;;;;24.80;86.00;24.70;99714.00;;;;333947;29;83154;-78
2022/06/05 18:53:34;;;;;;;;;;;24.80;86.10;24.70;99721.00;;;;330163;29;90378;-78
2022/06/05 18:53:49;;;;;;;;;;;24.80;86.40;24.60;99721.00;;;;333730;29;83421;-78
2022/06/05 18:54:02;;;;;;;;;;;24.80;86.00;24.70;99720.00;;;;333092;29;89061;-78
2022/06/05 18:54:18;;;;;;;;;;;24.80;85.90;24.80;99724.00;;;;335056;29;83474;-78
2022/06/05 18:54:35;;;;;;;;;;;24.80;86.10;24.60;99722.00;;;;332271;29;89087;-78
2022/06/05 18:54:49;;;;;;;;;;;24.80;86.10;24.60;99727.00;;;;333948;29;83249;-78
2022/06/05 18:55:01;;;;;;;;;;;24.80;86.60;24.60;99721.00;;;;334575;29;90625;-78
2022/06/05 18:55:15;;;;;;;;;;;24.80;86.00;24.60;99717.00;;;;332701;29;82460;-78
2022/06/05 18:55:38;;;;;;;;;;;24.80;86.20;24.70;99731.00;;;;333180;29;87875;-78
2022/06/05 18:55:51;;;;;;;;;;;24.70;86.10;24.70;99728.00;;;;333659;29;83543;-78
2022/06/05 18:56:04;;;;;;;;;;;24.70;86.20;24.70;99724.00;;;;332138;29;90298;-78
2022/06/05 18:56:30;;;;;;;;;;;24.80;86.20;24.60;99726.00;;;;332586;29;83272;-78
2022/06/05 18:56:42;;;;;;;;;;;24.80;86.10;24.60;99727.00;;;;333599;29;87733;-78
2022/06/05 18:57:27;;;;;;;;;;;24.70;85.90;24.70;99728.00;;;;331153;29;83247;-78
2022/06/05 18:57:38;;;;;;;;;;;24.70;85.90;24.60;99721.00;;;;327365;29;89024;-79
2022/06/05 18:57:50;;;;;;;;;;;24.70;85.60;24.60;99738.00;;;;331369;29;83385;-78
2022/06/05 18:58:23;;;;;;;;;;;24.70;85.70;24.60;99729.00;;;;333421;29;89297;-78
2022/06/05 18:58:41;;;;;;;;;;;24.70;85.60;24.60;99729.00;;;;336033;28;83260;-78
2022/06/05 18:58:52;;;;;;;;;;;24.70;85.60;24.60;99736.00;;;;332131;29;89299;-78
2022/06/05 18:59:24;;;;;;;;;;;24.70;85.80;24.60;99734.00;;;;333791;29;82475;-78
2022/06/05 18:59:36;;;;;;;;;;;24.70;85.90;24.60;99735.00;;;;333397;29;89116;-78
2022/06/05 18:59:53;;;;;;;;;;;24.70;85.80;24.60;99738.00;;;;334008;29;83167;-78
2022/06/05 19:00:07;;;;;;;;;;;24.70;85.90;24.50;99736.00;;;;334130;29;89793;-78
2022/06/05 19:00:29;;;;;;;;;;;24.70;85.80;24.60;99740.00;;;;333923;29;83242;-78
2022/06/05 19:00:41;;;;;;;;;;;24.60;85.90;24.60;99735.00;;;;333243;29;89238;-78
2022/06/05 19:00:52;;;;;;;;;;;24.70;85.90;24.60;99735.00;;;;333710;29;83593;-78
2022/06/05 19:01:17;;;;;;;;;;;24.60;85.80;24.60;99744.00;;;;333504;29;88394;-78
2022/06/05 19:01:30;;;;;;;;;;;24.70;85.90;24.50;99731.00;;;;334451;29;86348;-78
2022/06/05 19:01:42;;;;;;;;;;;24.60;85.80;24.60;99742.00;;;;332663;29;89053;-78
2022/06/05 19:01:56;;;;;;;;;;;24.60;85.70;24.60;99740.00;;;;332646;29;84217;-78
2022/06/05 19:02:12;;;;;;;;;;;24.60;85.80;24.60;99738.00;;;;332124;29;90198;-78
2022/06/05 19:02:24;;;;;;;;;;;24.60;85.80;24.70;99737.00;;;;332662;29;82291;-78
2022/06/05 19:02:56;;;;;;;;;;;24.70;85.90;24.70;99744.00;;;;333426;29;89414;-78
2022/06/05 19:03:19;;;;;;;;;;;24.60;85.80;24.70;99744.00;;;;333969;29;83574;-78
2022/06/05 19:03:33;;;;;;;;;;;24.70;85.90;24.70;99744.00;;;;333502;29;89003;-79
2022/06/05 19:03:55;;;;;;;;;;;24.70;86.40;24.50;99744.00;;;;332489;29;82467;-77
2022/06/05 19:04:07;;;;;;;;;;;24.60;86.20;24.50;99737.00;;;;332156;29;89524;-78
2022/06/05 19:04:19;;;;;;;;;;;24.60;85.90;24.60;99737.00;;;;332649;29;83149;-78
2022/06/05 19:04:30;;;;;;;;;;;24.60;86.00;24.60;99738.00;;;;333202;29;88967;-78
2022/06/05 19:04:47;;;;;;;;;;;24.70;86.10;24.50;99738.00;;;;331499;29;82477;-78
2022/06/05 19:05:00;;;;;;;;;;;24.60;86.10;24.60;99743.00;;;;330457;29;89482;-78
2022/06/05 19:05:33;;;;;;;;;;;24.60;86.10;24.50;99744.00;;;;335307;29;84287;-78
2022/06/05 19:05:46;;;;;;;;;;;24.60;86.10;24.50;99738.00;;;;334913;29;87989;-77
2022/06/05 19:05:59;;;;;;;;;;;24.60;86.10;24.60;99738.00;;;;335865;28;83668;-78
2022/06/05 19:06:36;;;;;;;;;;;24.60;86.20;24.60;99750.00;;;;332256;29;91453;-78
2022/06/05 19:06:55;;;;;;;;;;;24.60;86.10;24.40;99747.00;;;;333941;29;82475;-78
2022/06/05 19:07:09;;;;;;;;;;;24.60;86.20;24.50;99743.00;;;;333519;29;89096;-77
2022/06/05 19:07:24;;;;;;;;;;;24.60;86.30;24.50;99745.00;;;;332795;29;82384;-78
2022/06/05 19:07:42;;;;;;;;;;;24.60;86.10;24.50;99743.00;;;;333249;29;89271;-78
2022/06/05 19:07:54;;;;;;;;;;;24.60;86.10;24.50;99744.00;;;;333831;29;83432;-78
2022/06/05 19:08:35;;;;;;;;;;;24.60;86.20;24.50;99748.00;;;;337385;28;90114;-78
2022/06/05 19:08:47;;;;;;;;;;;24.60;86.20;24.40;99746.00;;;;337883;28;83571;-78
2022/06/05 19:08:59;;;;;;;;;;;24.50;86.10;24.50;99740.00;;;;332351;29;89268;-78
2022/06/05 19:09:14;;;;;;;;;;;24.50;86.30;24.50;99740.00;;;;334498;29;82352;-78
2022/06/05 19:09:28;;;;;;;;;;;24.50;86.20;24.50;99743.00;;;;333516;29;89402;-78
2022/06/05 19:09:43;;;;;;;;;;;24.50;86.40;24.50;99741.00;;;;333757;29;83384;-78
2022/06/05 19:09:56;;;;;;;;;;;24.50;86.30;24.60;99747.00;;;;333664;29;88464;-78
2022/06/05 19:10:11;;;;;;;;;;;24.50;86.30;24.50;99746.00;;;;335177;29;83261;-78
2022/06/05 19:10:25;;;;;;;;;;;24.50;86.30;24.50;99747.00;;;;332865;29;89435;-77
2022/06/05 19:10:37;;;;;;;;;;;24.50;86.40;24.50;99743.00;;;;333780;29;83322;-78
2022/06/05 19:10:51;;;;;;;;;;;24.50;86.30;24.50;99742.00;;;;333444;29;90608;-78
2022/06/05 19:11:18;;;;;;;;;;;24.50;86.90;24.50;99753.00;;;;333955;29;83517;-77
2022/06/05 19:11:34;;;;;;;;;;;24.50;86.50;24.60;99748.00;;;;333460;29;89638;-78
2022/06/05 19:12:01;;;;;;;;;;;24.50;86.50;24.50;99748.00;;;;333975;29;83278;-78
2022/06/05 19:12:24;;;;;;;;;;;24.50;86.40;24.50;99753.00;;;;334159;29;90937;-78
2022/06/05 19:12:42;;;;;;;;;;;24.50;86.50;24.50;99744.00;;;;335278;29;83224;-77
2022/06/05 19:13:44;;;;;;;;;;;24.50;86.50;24.60;99751.00;;;;333537;29;89245;-78
2022/06/05 19:14:05;;;;;;;;;;;24.50;86.40;24.60;99751.00;;;;331360;29;82454;-78
2022/06/05 19:14:24;;;;;;;;;;;24.50;86.60;24.60;99755.00;;;;332162;29;89435;-79
2022/06/05 19:14:45;;;;;;;;;;;24.50;86.50;24.50;99751.00;;;;332320;29;83425;-78
2022/06/05 19:15:10;;;;;;;;;;;24.50;86.90;24.50;99751.00;;;;333693;29;90623;-78
2022/06/05 19:15:28;;;;;;;;;;;24.50;86.50;24.50;99758.00;;;;335210;29;83287;-78
2022/06/05 19:15:45;;;;;;;;;;;24.50;86.70;24.50;99752.00;;;;334870;29;88015;-78
2022/06/05 19:15:56;;;;;;;;;;;24.50;86.70;24.50;99750.00;;;;336325;28;82259;-78
2022/06/05 19:16:39;;;;;;;;;;;24.50;86.60;24.50;99758.00;;;;336036;28;92456;-78
2022/06/05 19:16:53;;;;;;;;;;;24.50;86.50;24.50;99753.00;;;;334867;29;83636;-78
2022/06/05 19:17:10;;;;;;;;;;;24.50;86.70;24.40;99754.00;;;;330572;29;89656;-78
2022/06/05 19:17:25;;;;;;;;;;;24.50;86.90;24.40;99751.00;;;;334908;29;83306;-78
2022/06/05 19:17:39;;;;;;;;;;;24.50;86.90;24.50;99748.00;;;;335000;29;87936;-78
2022/06/05 19:17:57;;;;;;;;;;;24.50;86.90;24.50;99755.00;;;;336589;28;83366;-77
2022/06/05 19:18:32;;;;;;;;;;;24.50;86.80;24.50;99754.00;;;;333492;29;89895;-78
2022/06/05 19:19:12;;;;;;;;;;;24.50;86.80;24.60;99752.00;;;;332821;29;83620;-78
2022/06/05 19:19:24;;;;;;;;;;;24.50;87.00;24.60;99763.00;;;;331942;29;90490;-78
2022/06/05 19:19:39;;;;;;;;;;;24.50;86.90;24.50;99760.00;;;;332233;29;83476;-78
2022/06/05 19:19:55;;;;;;;;;;;24.40;87.00;24.50;99764.00;;;;334855;29;88394;-78
2022/06/05 19:20:17;;;;;;;;;;;24.50;87.00;24.50;99760.00;;;;331452;29;82444;-78
2022/06/05 19:20:33;;;;;;;;;;;24.50;86.90;24.50;99757.00;;;;331144;29;89456;-78
2022/06/05 19:20:51;;;;;;;;;;;24.50;87.30;24.40;99753.00;;;;332863;29;83444;-78
2022/06/05 19:21:09;;;;;;;;;;;24.50;87.40;24.50;99761.00;;;;333944;29;88353;-78
2022/06/05 19:21:33;;;;;;;;;;;24.50;87.20;24.60;99764.00;;;;334034;29;83450;-78
2022/06/05 19:21:45;;;;;;;;;;;24.50;87.20;24.50;99759.00;;;;332331;29;89817;-78
2022/06/05 19:22:00;;;;;;;;;;;24.50;87.20;24.50;99764.00;;;;332549;29;83285;-77
2022/06/05 19:22:16;;;;;;;;;;;24.50;87.20;24.50;99763.00;;;;334919;29;89062;-78
2022/06/05 19:22:32;;;;;;;;;;;24.50;87.20;24.50;99758.00;;;;334821;29;83378;-77
2022/06/05 19:22:44;;;;;;;;;;;24.40;87.20;24.40;99757.00;;;;334902;29;89195;-78